Flight Track Log - Related Links

Times and Time Zones

All times are in EDT time to prevent confusion due to time zone crossing. See the AWI3680 flight status page for this flight to view local times or setup timezone preferences in your user account.

Time Position Orientation Groundspeed Altitude Reporting Facility
EDT Latitude Longitude Course Direction KTS MPH feet Rate Location/Type
Sun 08:50:51 PM 42.7958 -73.8689 307° West 217 250 4,600  Level Boston Center
Sun 08:51:40 PM 42.7908 -73.9339 264° West 248 285 5,900 2,257 Climbing Boston Center
Sun 08:52:40 PM 42.7522 -74.0178 238° Southwest 259 298 8,700 2,650 Climbing Boston Center
Sun 08:53:40 PM 42.6925 -74.1094 228° Southwest 285 328 11,200 2,250 Climbing Boston Center
Sun 08:54:40 PM 42.6389 -74.1983 231° Southwest 300 345 13,200 1,818 Climbing Boston Center
Sun 08:55:52 PM 42.5833 -74.2900 231° Southwest 315 362 15,200 1,273 Climbing Boston Center
Sun 08:56:52 PM 42.5192 -74.3950 230° Southwest 323 372 16,000 400 Climbing Boston Center
Sun 08:57:52 PM 42.4525 -74.5083 231° Southwest 346 398 16,000  Level Boston Center
Sun 08:58:52 PM 42.3944 -74.6019 230° Southwest 357 411 16,000  Level Boston Center
Sun 08:59:52 PM 42.3256 -74.7175 231° Southwest 363 418 16,000 31 Level Boston Center
Sun 09:02:06 PM 42.1767 -74.9517 229° Southwest 365 420 16,100 31 Climbing New York Center
Sun 09:03:06 PM 42.0992 -75.0250 215° Southwest 372 428 16,100  Level New York Center
Sun 09:04:07 PM 42.0111 -75.0975 211° Southwest 372 428 16,100  Level New York Center
Sun 09:05:07 PM 41.9231 -75.1697 211° Southwest 372 428 16,100  Level New York Center
Sun 09:06:07 PM 41.8264 -75.2467 211° Southwest 377 434 16,100 -50 Level New York Center
Sun 09:07:07 PM 41.7364 -75.3186 211° Southwest 377 434 16,000 -151 Descending New York Center
Sun 09:08:06 PM 41.6481 -75.3903 211° Southwest 377 434 15,800 -958 Descending New York Center
Sun 09:09:06 PM 41.5664 -75.4567 211° Southwest 383 441 14,100 -1,636 Descending New York Center
Sun 09:10:07 PM 41.4761 -75.5278 211° Southwest 383 441 12,500 -1,041 Descending New York Center
Sun 09:11:07 PM 41.3792 -75.6067 211° Southwest 378 435 12,000 -250 Descending New York Center
Sun 09:12:07 PM 41.2975 -75.6672 209° Southwest 378 435 12,000  Level New York Center
Sun 09:13:07 PM 41.1906 -75.6897 189° South 354 407 12,000  Level New York Center
Sun 09:14:07 PM 41.0864 -75.6875 179° South 370 426 12,000  Level New York Center
Sun 09:15:07 PM 40.9869 -75.6722 173° South 370 426 12,000  Level New York Center
Sun 09:16:06 PM 40.8969 -75.6300 160° South 371 427 12,000  Level New York Center
Sun 09:17:06 PM 40.8008 -75.5903 163° South 377 434 12,000 -350 Level New York Center
Sun 09:18:06 PM 40.7067 -75.5453 160° South 372 428 11,300 -942 Descending New York Center
Sun 09:19:07 PM 40.6147 -75.5033 161° South 356 410 10,100 -639 Descending New York Center
Sun 09:20:08 PM 40.5286 -75.4675 162° South 343 395 10,000 -149 Descending New York Center
Sun 09:21:08 PM 40.4489 -75.4292 160° South 321 369 9,800 -661 Descending New York Center
Sun 09:22:06 PM 40.3678 -75.3692 151° Southeast 306 352 8,700 -1,169 Descending New York Center
Sun 09:23:06 PM 40.2989 -75.3156 149° Southeast 296 341 7,500 -1,190 Descending New York Center
Sun 09:24:07 PM 40.2322 -75.2650 150° Southeast 291 335 6,300 -738 Descending New York Center
Sun 09:25:08 PM 40.1697 -75.2094 146° Southeast 275 316 6,000 -496 Descending New York Center
Sun 09:26:08 PM 40.1256 -75.1606 140° Southeast 244 281 5,300 -1,032 Descending New York Center
Sun 09:26:41 PM 40.0833 -75.1333 154° Southeast 236 272 4,400 -897 Descending Philadelphia TRACON
Sun 09:27:35 PM 40.0333 -75.1000 153° Southeast 226 260 4,000 -737 Descending Philadelphia TRACON
Sun 09:28:35 PM 39.9833 -75.0667 153° Southeast 204 235 3,000 -1,000 Descending Philadelphia TRACON

Login

Don't have an account? Register now (free) for customized features, flight alerts, and more!